sensor_id;sensor_type;location;lat;lon;timestamp;P1;durP1;ratioP1;P2;durP2;ratioP2
20236;SDS011;10277;54.386;18.596;2022-08-04T00:08:06;4.83;;;3.53;;
20236;SDS011;10277;54.386;18.596;2022-08-04T00:13:12;4.63;;;3.40;;
20236;SDS011;10277;54.386;18.596;2022-08-04T00:18:15;4.87;;;3.50;;
20236;SDS011;10277;54.386;18.596;2022-08-04T00:23:18;5.73;;;3.20;;
20236;SDS011;10277;54.386;18.596;2022-08-04T00:28:20;5.97;;;3.30;;
20236;SDS011;10277;54.386;18.596;2022-08-04T00:33:23;5.13;;;3.63;;
20236;SDS011;10277;54.386;18.596;2022-08-04T00:38:25;9.43;;;3.63;;
20236;SDS011;10277;54.386;18.596;2022-08-04T00:43:33;10.20;;;3.30;;
20236;SDS011;10277;54.386;18.596;2022-08-04T00:53:54;4.10;;;3.07;;
20236;SDS011;10277;54.386;18.596;2022-08-04T00:59:03;4.70;;;3.53;;
20236;SDS011;10277;54.386;18.596;2022-08-04T01:09:32;5.93;;;3.20;;
20236;SDS011;10277;54.386;18.596;2022-08-04T01:20:06;6.67;;;3.37;;
20236;SDS011;10277;54.386;18.596;2022-08-04T01:25:28;4.40;;;3.33;;
20236;SDS011;10277;54.386;18.596;2022-08-04T01:30:40;4.67;;;3.00;;
20236;SDS011;10277;54.386;18.596;2022-08-04T01:35:47;4.63;;;3.17;;
20236;SDS011;10277;54.386;18.596;2022-08-04T01:40:50;3.77;;;3.33;;
20236;SDS011;10277;54.386;18.596;2022-08-04T01:45:56;6.33;;;3.20;;
20236;SDS011;10277;54.386;18.596;2022-08-04T01:51:02;6.13;;;3.40;;
20236;SDS011;10277;54.386;18.596;2022-08-04T01:56:06;8.10;;;3.30;;
20236;SDS011;10277;54.386;18.596;2022-08-04T02:01:09;3.97;;;3.33;;
20236;SDS011;10277;54.386;18.596;2022-08-04T02:11:20;3.93;;;3.37;;
20236;SDS011;10277;54.386;18.596;2022-08-04T02:16:38;4.83;;;3.50;;
20236;SDS011;10277;54.386;18.596;2022-08-04T02:21:45;4.47;;;3.30;;
20236;SDS011;10277;54.386;18.596;2022-08-04T02:26:49;5.70;;;3.80;;
20236;SDS011;10277;54.386;18.596;2022-08-04T02:31:56;3.53;;;3.23;;
20236;SDS011;10277;54.386;18.596;2022-08-04T02:36:59;4.27;;;3.40;;
20236;SDS011;10277;54.386;18.596;2022-08-04T02:42:03;4.77;;;3.47;;
20236;SDS011;10277;54.386;18.596;2022-08-04T02:47:05;3.70;;;3.40;;
20236;SDS011;10277;54.386;18.596;2022-08-04T02:52:09;4.90;;;3.53;;
20236;SDS011;10277;54.386;18.596;2022-08-04T02:57:14;5.17;;;3.70;;
20236;SDS011;10277;54.386;18.596;2022-08-04T03:02:16;5.63;;;4.03;;
20236;SDS011;10277;54.386;18.596;2022-08-04T03:07:31;5.93;;;3.70;;
20236;SDS011;10277;54.386;18.596;2022-08-04T03:39:07;4.43;;;4.03;;
20236;SDS011;10277;54.386;18.596;2022-08-04T03:55:10;5.77;;;4.90;;
20236;SDS011;10277;54.386;18.596;2022-08-04T04:00:17;7.43;;;5.40;;
20236;SDS011;10277;54.386;18.596;2022-08-04T04:05:34;5.87;;;4.57;;
20236;SDS011;10277;54.386;18.596;2022-08-04T04:11:11;7.17;;;5.10;;
20236;SDS011;10277;54.386;18.596;2022-08-04T04:42:33;9.77;;;5.50;;
20236;SDS011;10277;54.386;18.596;2022-08-04T04:47:41;6.73;;;5.33;;
20236;SDS011;10277;54.386;18.596;2022-08-04T04:53:10;8.60;;;5.37;;
20236;SDS011;10277;54.386;18.596;2022-08-04T04:58:14;8.50;;;6.20;;
20236;SDS011;10277;54.386;18.596;2022-08-04T05:08:33;11.03;;;6.70;;
20236;SDS011;10277;54.386;18.596;2022-08-04T05:24:17;14.17;;;6.87;;
20236;SDS011;10277;54.386;18.596;2022-08-04T05:29:23;12.70;;;7.20;;
20236;SDS011;10277;54.386;18.596;2022-08-04T05:34:34;9.77;;;6.53;;
20236;SDS011;10277;54.386;18.596;2022-08-04T05:39:47;9.53;;;6.47;;
20236;SDS011;10277;54.386;18.596;2022-08-04T05:44:50;9.93;;;6.90;;
20236;SDS011;10277;54.386;18.596;2022-08-04T05:49:53;12.32;;;6.60;;
20236;SDS011;10277;54.386;18.596;2022-08-04T05:55:03;13.57;;;7.00;;
20236;SDS011;10277;54.386;18.596;2022-08-04T06:00:06;13.15;;;6.50;;
20236;SDS011;10277;54.386;18.596;2022-08-04T06:05:29;14.68;;;6.75;;
20236;SDS011;10277;54.386;18.596;2022-08-04T06:10:31;12.55;;;8.13;;
20236;SDS011;10277;54.386;18.596;2022-08-04T06:15:36;12.02;;;6.70;;
20236;SDS011;10277;54.386;18.596;2022-08-04T06:20:47;11.23;;;6.30;;
20236;SDS011;10277;54.386;18.596;2022-08-04T06:25:53;10.50;;;6.15;;
20236;SDS011;10277;54.386;18.596;2022-08-04T06:30:56;12.27;;;6.57;;
20236;SDS011;10277;54.386;18.596;2022-08-04T06:36:24;8.10;;;6.80;;
20236;SDS011;10277;54.386;18.596;2022-08-04T06:41:30;20.88;;;7.57;;
20236;SDS011;10277;54.386;18.596;2022-08-04T06:46:33;12.85;;;6.85;;
20236;SDS011;10277;54.386;18.596;2022-08-04T06:51:36;11.48;;;6.38;;
20236;SDS011;10277;54.386;18.596;2022-08-04T06:56:50;10.18;;;6.80;;
20236;SDS011;10277;54.386;18.596;2022-08-04T07:01:54;21.80;;;7.25;;
20236;SDS011;10277;54.386;18.596;2022-08-04T07:06:57;11.43;;;7.75;;
20236;SDS011;10277;54.386;18.596;2022-08-04T07:12:00;8.73;;;7.35;;
20236;SDS011;10277;54.386;18.596;2022-08-04T07:17:03;9.45;;;8.32;;
20236;SDS011;10277;54.386;18.596;2022-08-04T07:22:06;8.15;;;7.35;;
20236;SDS011;10277;54.386;18.596;2022-08-04T07:27:26;9.63;;;6.63;;
20236;SDS011;10277;54.386;18.596;2022-08-04T07:32:49;16.20;;;8.35;;
20236;SDS011;10277;54.386;18.596;2022-08-04T07:37:51;17.58;;;9.93;;
20236;SDS011;10277;54.386;18.596;2022-08-04T07:42:54;9.90;;;6.95;;
20236;SDS011;10277;54.386;18.596;2022-08-04T07:47:56;10.30;;;7.15;;
20236;SDS011;10277;54.386;18.596;2022-08-04T07:53:06;11.18;;;6.97;;
20236;SDS011;10277;54.386;18.596;2022-08-04T07:58:29;9.10;;;6.97;;
20236;SDS011;10277;54.386;18.596;2022-08-04T08:03:34;9.32;;;6.93;;
20236;SDS011;10277;54.386;18.596;2022-08-04T08:08:37;15.45;;;13.50;;
20236;SDS011;10277;54.386;18.596;2022-08-04T08:13:40;10.05;;;7.07;;
20236;SDS011;10277;54.386;18.596;2022-08-04T08:18:42;11.70;;;7.05;;
20236;SDS011;10277;54.386;18.596;2022-08-04T08:23:50;12.60;;;7.28;;
20236;SDS011;10277;54.386;18.596;2022-08-04T08:28:53;10.50;;;6.47;;
20236;SDS011;10277;54.386;18.596;2022-08-04T08:33:55;10.60;;;6.40;;
20236;SDS011;10277;54.386;18.596;2022-08-04T08:44:10;8.63;;;6.57;;
20236;SDS011;10277;54.386;18.596;2022-08-04T08:55:11;8.77;;;5.90;;
20236;SDS011;10277;54.386;18.596;2022-08-04T09:10:48;12.02;;;6.63;;
20236;SDS011;10277;54.386;18.596;2022-08-04T09:21:05;6.95;;;5.93;;
20236;SDS011;10277;54.386;18.596;2022-08-04T09:31:23;11.10;;;6.20;;
20236;SDS011;10277;54.386;18.596;2022-08-04T09:36:51;10.90;;;5.55;;
20236;SDS011;10277;54.386;18.596;2022-08-04T09:52:52;6.57;;;5.75;;
20236;SDS011;10277;54.386;18.596;2022-08-04T09:57:38;8.30;;;5.00;;
20236;SDS011;10277;54.386;18.596;2022-08-04T10:02:52;10.70;;;5.70;;
20236;SDS011;10277;54.386;18.596;2022-08-04T10:13:32;11.43;;;6.25;;
20236;SDS011;10277;54.386;18.596;2022-08-04T10:29:17;7.50;;;4.80;;
20236;SDS011;10277;54.386;18.596;2022-08-04T10:34:21;9.70;;;5.90;;
20236;SDS011;10277;54.386;18.596;2022-08-04T10:39:25;7.40;;;5.43;;
20236;SDS011;10277;54.386;18.596;2022-08-04T10:44:59;6.68;;;5.40;;
20236;SDS011;10277;54.386;18.596;2022-08-04T10:50:08;9.60;;;5.47;;
20236;SDS011;10277;54.386;18.596;2022-08-04T10:55:18;5.63;;;5.10;;
20236;SDS011;10277;54.386;18.596;2022-08-04T11:00:22;6.93;;;4.88;;
20236;SDS011;10277;54.386;18.596;2022-08-04T11:05:28;7.55;;;5.18;;
20236;SDS011;10277;54.386;18.596;2022-08-04T11:10:33;15.82;;;6.32;;
20236;SDS011;10277;54.386;18.596;2022-08-04T11:15:56;9.52;;;6.10;;
20236;SDS011;10277;54.386;18.596;2022-08-04T11:21:08;7.68;;;5.45;;
20236;SDS011;10277;54.386;18.596;2022-08-04T11:26:13;6.60;;;5.07;;
20236;SDS011;10277;54.386;18.596;2022-08-04T11:31:24;7.63;;;5.55;;
20236;SDS011;10277;54.386;18.596;2022-08-04T11:36:33;8.55;;;5.68;;
20236;SDS011;10277;54.386;18.596;2022-08-04T11:46:41;13.88;;;5.68;;
20236;SDS011;10277;54.386;18.596;2022-08-04T11:51:44;6.57;;;5.80;;
20236;SDS011;10277;54.386;18.596;2022-08-04T11:56:47;7.00;;;5.50;;
20236;SDS011;10277;54.386;18.596;2022-08-04T12:02:01;7.28;;;5.82;;
20236;SDS011;10277;54.386;18.596;2022-08-04T12:12:36;6.50;;;5.75;;
20236;SDS011;10277;54.386;18.596;2022-08-04T12:22:55;8.07;;;5.90;;
20236;SDS011;10277;54.386;18.596;2022-08-04T12:27:59;6.13;;;5.50;;
20236;SDS011;10277;54.386;18.596;2022-08-04T12:33:11;6.43;;;5.40;;
20236;SDS011;10277;54.386;18.596;2022-08-04T12:38:19;7.50;;;5.85;;
20236;SDS011;10277;54.386;18.596;2022-08-04T12:48:26;7.90;;;5.03;;
20236;SDS011;10277;54.386;18.596;2022-08-04T12:53:29;6.20;;;5.53;;
20236;SDS011;10277;54.386;18.596;2022-08-04T12:58:40;6.93;;;5.30;;
20236;SDS011;10277;54.386;18.596;2022-08-04T13:03:52;8.80;;;5.70;;
20236;SDS011;10277;54.386;18.596;2022-08-04T13:09:00;7.63;;;5.40;;
20236;SDS011;10277;54.386;18.596;2022-08-04T13:14:03;7.97;;;5.45;;
20236;SDS011;10277;54.386;18.596;2022-08-04T13:19:27;8.23;;;5.10;;
20236;SDS011;10277;54.386;18.596;2022-08-04T13:24:31;8.57;;;5.30;;
20236;SDS011;10277;54.386;18.596;2022-08-04T13:29:55;5.38;;;4.88;;
20236;SDS011;10277;54.386;18.596;2022-08-04T13:35:05;5.80;;;4.50;;
20236;SDS011;10277;54.386;18.596;2022-08-04T13:40:18;8.27;;;5.03;;
20236;SDS011;10277;54.386;18.596;2022-08-04T13:45:23;7.13;;;4.95;;
20236;SDS011;10277;54.386;18.596;2022-08-04T13:50:36;6.30;;;4.78;;
20236;SDS011;10277;54.386;18.596;2022-08-04T13:55:39;6.88;;;4.50;;
20236;SDS011;10277;54.386;18.596;2022-08-04T14:00:50;7.18;;;4.70;;
20236;SDS011;10277;54.386;18.596;2022-08-04T14:06:14;5.00;;;4.60;;
20236;SDS011;10277;54.386;18.596;2022-08-04T14:11:18;6.30;;;5.00;;
20236;SDS011;10277;54.386;18.596;2022-08-04T14:16:57;4.70;;;4.30;;
20236;SDS011;10277;54.386;18.596;2022-08-04T14:22:01;5.22;;;4.80;;
20236;SDS011;10277;54.386;18.596;2022-08-04T14:27:03;10.10;;;4.68;;
20236;SDS011;10277;54.386;18.596;2022-08-04T14:32:06;10.15;;;4.82;;
20236;SDS011;10277;54.386;18.596;2022-08-04T14:37:16;5.03;;;4.53;;
20236;SDS011;10277;54.386;18.596;2022-08-04T14:42:45;8.50;;;4.32;;
20236;SDS011;10277;54.386;18.596;2022-08-04T14:47:45;8.30;;;4.60;;
20236;SDS011;10277;54.386;18.596;2022-08-04T14:53:01;8.23;;;4.57;;
20236;SDS011;10277;54.386;18.596;2022-08-04T14:58:03;5.93;;;4.45;;
20236;SDS011;10277;54.386;18.596;2022-08-04T15:03:27;7.22;;;4.78;;
20236;SDS011;10277;54.386;18.596;2022-08-04T15:08:29;9.20;;;4.88;;
20236;SDS011;10277;54.386;18.596;2022-08-04T15:13:32;8.57;;;4.57;;
20236;SDS011;10277;54.386;18.596;2022-08-04T15:18:36;11.48;;;5.15;;
20236;SDS011;10277;54.386;18.596;2022-08-04T15:23:39;10.85;;;5.05;;
20236;SDS011;10277;54.386;18.596;2022-08-04T15:28:44;7.35;;;4.70;;
20236;SDS011;10277;54.386;18.596;2022-08-04T15:33:48;12.30;;;5.10;;
20236;SDS011;10277;54.386;18.596;2022-08-04T15:39:11;12.60;;;5.47;;
20236;SDS011;10277;54.386;18.596;2022-08-04T15:49:25;8.93;;;5.65;;
20236;SDS011;10277;54.386;18.596;2022-08-04T15:54:28;14.48;;;5.47;;
20236;SDS011;10277;54.386;18.596;2022-08-04T16:05:38;5.30;;;4.75;;
20236;SDS011;10277;54.386;18.596;2022-08-04T16:15:36;10.30;;;5.70;;
20236;SDS011;10277;54.386;18.596;2022-08-04T16:20:39;9.27;;;5.47;;
20236;SDS011;10277;54.386;18.596;2022-08-04T16:25:46;8.50;;;6.05;;
20236;SDS011;10277;54.386;18.596;2022-08-04T16:30:49;12.32;;;5.95;;
20236;SDS011;10277;54.386;18.596;2022-08-04T16:36:01;6.90;;;6.15;;
20236;SDS011;10277;54.386;18.596;2022-08-04T16:41:11;15.00;;;7.60;;
20236;SDS011;10277;54.386;18.596;2022-08-04T16:46:13;10.57;;;6.82;;
20236;SDS011;10277;54.386;18.596;2022-08-04T16:51:35;15.57;;;6.72;;
20236;SDS011;10277;54.386;18.596;2022-08-04T16:56:38;11.73;;;7.03;;
20236;SDS011;10277;54.386;18.596;2022-08-04T17:01:47;8.23;;;7.07;;
20236;SDS011;10277;54.386;18.596;2022-08-04T17:06:50;8.32;;;6.97;;
20236;SDS011;10277;54.386;18.596;2022-08-04T17:11:53;15.68;;;8.00;;
20236;SDS011;10277;54.386;18.596;2022-08-04T17:16:56;10.15;;;7.47;;
20236;SDS011;10277;54.386;18.596;2022-08-04T17:22:03;9.70;;;6.95;;
20236;SDS011;10277;54.386;18.596;2022-08-04T17:27:07;7.85;;;7.15;;
20236;SDS011;10277;54.386;18.596;2022-08-04T17:32:31;13.57;;;9.35;;
20236;SDS011;10277;54.386;18.596;2022-08-04T17:37:33;9.23;;;7.40;;
20236;SDS011;10277;54.386;18.596;2022-08-04T17:42:42;8.57;;;7.68;;
20236;SDS011;10277;54.386;18.596;2022-08-04T17:47:50;9.15;;;8.27;;
20236;SDS011;10277;54.386;18.596;2022-08-04T17:53:05;9.65;;;8.18;;
20236;SDS011;10277;54.386;18.596;2022-08-04T17:58:14;12.48;;;7.88;;
20236;SDS011;10277;54.386;18.596;2022-08-04T18:03:28;14.13;;;12.82;;
20236;SDS011;10277;54.386;18.596;2022-08-04T18:08:31;11.80;;;8.90;;
20236;SDS011;10277;54.386;18.596;2022-08-04T18:13:42;11.35;;;8.85;;
20236;SDS011;10277;54.386;18.596;2022-08-04T18:19:06;10.30;;;8.20;;
20236;SDS011;10277;54.386;18.596;2022-08-04T18:24:08;12.77;;;7.93;;
20236;SDS011;10277;54.386;18.596;2022-08-04T18:29:12;11.52;;;10.52;;
20236;SDS011;10277;54.386;18.596;2022-08-04T18:34:32;11.75;;;8.40;;
20236;SDS011;10277;54.386;18.596;2022-08-04T18:39:34;10.73;;;8.88;;
20236;SDS011;10277;54.386;18.596;2022-08-04T18:44:57;9.48;;;8.52;;
20236;SDS011;10277;54.386;18.596;2022-08-04T18:50:01;11.40;;;8.80;;
20236;SDS011;10277;54.386;18.596;2022-08-04T18:55:24;21.05;;;10.27;;
20236;SDS011;10277;54.386;18.596;2022-08-04T19:00:47;16.58;;;8.70;;
20236;SDS011;10277;54.386;18.596;2022-08-04T19:05:49;14.15;;;8.85;;
20236;SDS011;10277;54.386;18.596;2022-08-04T19:10:52;11.10;;;8.77;;
20236;SDS011;10277;54.386;18.596;2022-08-04T19:16:01;11.88;;;8.60;;
20236;SDS011;10277;54.386;18.596;2022-08-04T19:21:06;16.15;;;14.45;;
20236;SDS011;10277;54.386;18.596;2022-08-04T19:26:08;13.45;;;8.68;;
20236;SDS011;10277;54.386;18.596;2022-08-04T19:31:28;11.15;;;9.02;;
20236;SDS011;10277;54.386;18.596;2022-08-04T19:36:42;12.35;;;9.73;;
20236;SDS011;10277;54.386;18.596;2022-08-04T19:41:47;16.85;;;9.68;;
20236;SDS011;10277;54.386;18.596;2022-08-04T19:47:07;16.45;;;9.20;;
20236;SDS011;10277;54.386;18.596;2022-08-04T19:52:29;14.45;;;8.82;;
20236;SDS011;10277;54.386;18.596;2022-08-04T19:57:39;15.73;;;10.32;;
20236;SDS011;10277;54.386;18.596;2022-08-04T20:02:50;10.90;;;9.82;;
20236;SDS011;10277;54.386;18.596;2022-08-04T20:07:53;11.48;;;9.27;;
20236;SDS011;10277;54.386;18.596;2022-08-04T20:12:57;10.43;;;9.35;;
20236;SDS011;10277;54.386;18.596;2022-08-04T20:18:00;15.40;;;11.02;;
20236;SDS011;10277;54.386;18.596;2022-08-04T20:23:22;15.88;;;10.25;;
20236;SDS011;10277;54.386;18.596;2022-08-04T20:28:44;14.52;;;10.25;;
20236;SDS011;10277;54.386;18.596;2022-08-04T20:33:53;15.57;;;10.10;;
20236;SDS011;10277;54.386;18.596;2022-08-04T20:38:56;22.25;;;10.57;;
20236;SDS011;10277;54.386;18.596;2022-08-04T20:43:58;14.32;;;11.25;;
20236;SDS011;10277;54.386;18.596;2022-08-04T20:49:00;13.15;;;10.75;;
20236;SDS011;10277;54.386;18.596;2022-08-04T20:54:03;16.83;;;10.93;;
20236;SDS011;10277;54.386;18.596;2022-08-04T20:59:24;15.40;;;10.68;;
20236;SDS011;10277;54.386;18.596;2022-08-04T21:04:28;22.15;;;11.77;;
20236;SDS011;10277;54.386;18.596;2022-08-04T21:09:38;12.90;;;10.52;;
20236;SDS011;10277;54.386;18.596;2022-08-04T21:14:52;14.80;;;10.98;;
20236;SDS011;10277;54.386;18.596;2022-08-04T21:19:54;14.35;;;11.13;;
20236;SDS011;10277;54.386;18.596;2022-08-04T21:24:56;14.00;;;10.55;;
20236;SDS011;10277;54.386;18.596;2022-08-04T21:30:02;13.40;;;11.73;;
20236;SDS011;10277;54.386;18.596;2022-08-04T21:35:21;19.88;;;11.38;;
20236;SDS011;10277;54.386;18.596;2022-08-04T21:40:39;11.95;;;10.77;;
20236;SDS011;10277;54.386;18.596;2022-08-04T21:45:41;13.05;;;11.55;;
20236;SDS011;10277;54.386;18.596;2022-08-04T21:50:49;15.95;;;11.38;;
20236;SDS011;10277;54.386;18.596;2022-08-04T21:55:51;16.30;;;11.73;;
20236;SDS011;10277;54.386;18.596;2022-08-04T22:01:08;19.52;;;14.90;;
20236;SDS011;10277;54.386;18.596;2022-08-04T22:06:14;25.40;;;15.77;;
20236;SDS011;10277;54.386;18.596;2022-08-04T22:11:22;26.45;;;17.88;;
20236;SDS011;10277;54.386;18.596;2022-08-04T22:16:27;16.98;;;12.38;;
20236;SDS011;10277;54.386;18.596;2022-08-04T22:21:31;16.13;;;11.57;;
20236;SDS011;10277;54.386;18.596;2022-08-04T22:26:40;12.18;;;10.95;;
20236;SDS011;10277;54.386;18.596;2022-08-04T22:31:43;15.15;;;11.02;;
20236;SDS011;10277;54.386;18.596;2022-08-04T22:36:57;13.93;;;10.15;;
20236;SDS011;10277;54.386;18.596;2022-08-04T22:42:00;12.35;;;10.80;;
20236;SDS011;10277;54.386;18.596;2022-08-04T22:47:05;13.32;;;10.95;;
20236;SDS011;10277;54.386;18.596;2022-08-04T22:52:22;13.18;;;11.40;;
20236;SDS011;10277;54.386;18.596;2022-08-04T22:57:32;12.65;;;11.18;;
20236;SDS011;10277;54.386;18.596;2022-08-04T23:02:55;13.00;;;10.93;;
20236;SDS011;10277;54.386;18.596;2022-08-04T23:07:57;12.38;;;11.13;;
20236;SDS011;10277;54.386;18.596;2022-08-04T23:13:05;13.80;;;10.23;;
20236;SDS011;10277;54.386;18.596;2022-08-04T23:18:07;16.73;;;10.60;;
20236;SDS011;10277;54.386;18.596;2022-08-04T23:23:09;12.55;;;11.00;;
20236;SDS011;10277;54.386;18.596;2022-08-04T23:28:16;14.95;;;10.50;;
20236;SDS011;10277;54.386;18.596;2022-08-04T23:33:18;13.80;;;10.10;;
20236;SDS011;10277;54.386;18.596;2022-08-04T23:38:24;16.50;;;10.50;;
20236;SDS011;10277;54.386;18.596;2022-08-04T23:43:33;12.82;;;9.25;;
20236;SDS011;10277;54.386;18.596;2022-08-04T23:48:55;18.15;;;9.85;;
20236;SDS011;10277;54.386;18.596;2022-08-04T23:53:58;12.05;;;9.23;;
20236;SDS011;10277;54.386;18.596;2022-08-04T23:59:05;17.05;;;9.52;;
